sensor_id;sensor_type;location;lat;lon;timestamp;temperature;humidity
27368;DHT22;14839;48.106;11.618;2023-11-21T05:01:37;7.30;94.60
27368;DHT22;14839;48.106;11.618;2023-11-21T05:04:04;7.30;94.60
27368;DHT22;14839;48.106;11.618;2023-11-21T05:06:31;7.30;94.60
27368;DHT22;14839;48.106;11.618;2023-11-21T05:08:58;7.30;94.60
27368;DHT22;14839;48.106;11.618;2023-11-21T05:11:28;7.30;94.60
27368;DHT22;14839;48.106;11.618;2023-11-21T05:13:54;7.30;94.60
27368;DHT22;14839;48.106;11.618;2023-11-21T05:16:21;7.30;94.60
27368;DHT22;14839;48.106;11.618;2023-11-21T05:18:47;7.30;94.60
27368;DHT22;14839;48.106;11.618;2023-11-21T05:21:13;7.30;94.60
27368;DHT22;14839;48.106;11.618;2023-11-21T05:23:38;7.30;94.60
27368;DHT22;14839;48.106;11.618;2023-11-21T05:26:05;7.20;94.60
27368;DHT22;14839;48.106;11.618;2023-11-21T05:28:30;7.30;94.60
27368;DHT22;14839;48.106;11.618;2023-11-21T05:30:56;7.30;94.60
27368;DHT22;14839;48.106;11.618;2023-11-21T05:33:22;7.30;94.60
27368;DHT22;14839;48.106;11.618;2023-11-21T05:35:47;7.30;94.60
27368;DHT22;14839;48.106;11.618;2023-11-21T05:38:15;7.30;94.60
27368;DHT22;14839;48.106;11.618;2023-11-21T05:40:41;7.30;94.60
27368;DHT22;14839;48.106;11.618;2023-11-21T05:43:07;7.20;94.60
27368;DHT22;14839;48.106;11.618;2023-11-21T05:45:32;7.20;94.60
27368;DHT22;14839;48.106;11.618;2023-11-21T05:47:58;7.30;94.60
27368;DHT22;14839;48.106;11.618;2023-11-21T05:50:24;7.30;94.60
27368;DHT22;14839;48.106;11.618;2023-11-21T05:52:50;7.30;94.60
27368;DHT22;14839;48.106;11.618;2023-11-21T05:55:16;7.30;94.60
27368;DHT22;14839;48.106;11.618;2023-11-21T05:57:43;7.20;94.60
27368;DHT22;14839;48.106;11.618;2023-11-21T06:00:13;7.20;94.60
27368;DHT22;14839;48.106;11.618;2023-11-21T06:02:52;7.30;94.60
27368;DHT22;14839;48.106;11.618;2023-11-21T06:05:31;7.30;94.60
27368;DHT22;14839;48.106;11.618;2023-11-21T06:07:57;7.20;94.60
27368;DHT22;14839;48.106;11.618;2023-11-21T06:10:26;7.20;94.60
27368;DHT22;14839;48.106;11.618;2023-11-21T06:12:53;7.20;94.60
27368;DHT22;14839;48.106;11.618;2023-11-21T06:15:19;7.20;94.60
27368;DHT22;14839;48.106;11.618;2023-11-21T06:17:46;7.20;94.60
27368;DHT22;14839;48.106;11.618;2023-11-21T06:20:18;7.20;94.60
27368;DHT22;14839;48.106;11.618;2023-11-21T06:22:50;7.20;94.60
27368;DHT22;14839;48.106;11.618;2023-11-21T06:25:16;7.20;94.60
27368;DHT22;14839;48.106;11.618;2023-11-21T06:27:44;7.20;94.60
27368;DHT22;14839;48.106;11.618;2023-11-21T06:30:10;7.20;94.60
27368;DHT22;14839;48.106;11.618;2023-11-21T06:32:38;7.20;94.60
27368;DHT22;14839;48.106;11.618;2023-11-21T06:35:05;7.20;94.60
27368;DHT22;14839;48.106;11.618;2023-11-21T06:37:31;7.20;94.60
27368;DHT22;14839;48.106;11.618;2023-11-21T06:39:58;7.20;94.60
27368;DHT22;14839;48.106;11.618;2023-11-21T06:42:24;7.20;94.60
27368;DHT22;14839;48.106;11.618;2023-11-21T06:44:50;7.20;94.60
27368;DHT22;14839;48.106;11.618;2023-11-21T06:47:22;7.20;94.60
27368;DHT22;14839;48.106;11.618;2023-11-21T06:49:50;7.30;94.60
27368;DHT22;14839;48.106;11.618;2023-11-21T06:52:16;7.30;94.60
27368;DHT22;14839;48.106;11.618;2023-11-21T06:54:42;7.30;94.60
27368;DHT22;14839;48.106;11.618;2023-11-21T06:57:07;7.30;94.60
27368;DHT22;14839;48.106;11.618;2023-11-21T06:59:33;7.30;94.60
27368;DHT22;14839;48.106;11.618;2023-11-21T07:01:59;7.30;94.60
27368;DHT22;14839;48.106;11.618;2023-11-21T07:04:24;7.30;94.60
27368;DHT22;14839;48.106;11.618;2023-11-21T07:06:54;7.40;94.60
27368;DHT22;14839;48.106;11.618;2023-11-21T07:09:20;7.40;94.60
27368;DHT22;14839;48.106;11.618;2023-11-21T07:11:48;7.40;94.60
27368;DHT22;14839;48.106;11.618;2023-11-21T07:14:14;7.50;94.60
27368;DHT22;14839;48.106;11.618;2023-11-21T07:16:39;7.50;94.60
27368;DHT22;14839;48.106;11.618;2023-11-21T07:19:06;7.50;94.60
27368;DHT22;14839;48.106;11.618;2023-11-21T07:21:33;7.50;94.60
27368;DHT22;14839;48.106;11.618;2023-11-21T07:24:00;7.60;94.60
27368;DHT22;14839;48.106;11.618;2023-11-21T07:26:26;7.50;94.60
27368;DHT22;14839;48.106;11.618;2023-11-21T07:28:52;7.60;94.60
27368;DHT22;14839;48.106;11.618;2023-11-21T07:31:18;7.60;94.60
27368;DHT22;14839;48.106;11.618;2023-11-21T07:33:45;7.60;94.60
27368;DHT22;14839;48.106;11.618;2023-11-21T07:36:13;7.50;94.60
27368;DHT22;14839;48.106;11.618;2023-11-21T07:38:38;7.60;94.60
27368;DHT22;14839;48.106;11.618;2023-11-21T07:41:04;7.60;94.60
27368;DHT22;14839;48.106;11.618;2023-11-21T07:43:30;7.60;94.60
27368;DHT22;14839;48.106;11.618;2023-11-21T07:46:03;7.60;94.60
27368;DHT22;14839;48.106;11.618;2023-11-21T07:48:30;7.60;94.60
27368;DHT22;14839;48.106;11.618;2023-11-21T07:50:57;7.70;94.60
27368;DHT22;14839;48.106;11.618;2023-11-21T07:53:24;7.70;94.60
27368;DHT22;14839;48.106;11.618;2023-11-21T07:55:51;7.70;94.60
27368;DHT22;14839;48.106;11.618;2023-11-21T07:58:16;7.80;94.60
27368;DHT22;14839;48.106;11.618;2023-11-21T08:00:42;7.80;94.60
27368;DHT22;14839;48.106;11.618;2023-11-21T08:03:07;7.90;94.60
27368;DHT22;14839;48.106;11.618;2023-11-21T08:05:36;7.90;94.60
27368;DHT22;14839;48.106;11.618;2023-11-21T08:08:01;8.00;94.60
27368;DHT22;14839;48.106;11.618;2023-11-21T08:10:27;8.00;94.60
27368;DHT22;14839;48.106;11.618;2023-11-21T08:12:53;8.10;94.60
27368;DHT22;14839;48.106;11.618;2023-11-21T08:15:19;8.10;94.60
27368;DHT22;14839;48.106;11.618;2023-11-21T08:17:46;8.20;94.60
27368;DHT22;14839;48.106;11.618;2023-11-21T08:20:11;8.20;94.60
27368;DHT22;14839;48.106;11.618;2023-11-21T08:22:37;8.30;94.60
27368;DHT22;14839;48.106;11.618;2023-11-21T08:25:06;8.30;94.60
27368;DHT22;14839;48.106;11.618;2023-11-21T08:27:33;8.40;94.60
27368;DHT22;14839;48.106;11.618;2023-11-21T08:30:02;8.50;94.60
27368;DHT22;14839;48.106;11.618;2023-11-21T08:32:28;8.50;94.60
27368;DHT22;14839;48.106;11.618;2023-11-21T08:34:55;8.50;94.60
27368;DHT22;14839;48.106;11.618;2023-11-21T08:37:20;8.50;94.60
27368;DHT22;14839;48.106;11.618;2023-11-21T08:39:47;8.60;94.60
27368;DHT22;14839;48.106;11.618;2023-11-21T08:42:13;8.60;94.60
27368;DHT22;14839;48.106;11.618;2023-11-21T08:44:40;8.60;94.60
27368;DHT22;14839;48.106;11.618;2023-11-21T08:47:06;8.60;94.60
27368;DHT22;14839;48.106;11.618;2023-11-21T08:49:31;8.60;94.60
27368;DHT22;14839;48.106;11.618;2023-11-21T08:51:58;8.60;94.60
27368;DHT22;14839;48.106;11.618;2023-11-21T08:54:25;8.50;94.60
27368;DHT22;14839;48.106;11.618;2023-11-21T08:56:54;8.60;94.60
27368;DHT22;14839;48.106;11.618;2023-11-21T08:59:20;8.70;94.60
27368;DHT22;14839;48.106;11.618;2023-11-21T09:01:46;8.80;94.60
27368;DHT22;14839;48.106;11.618;2023-11-21T09:04:12;9.10;94.60
27368;DHT22;14839;48.106;11.618;2023-11-21T09:06:39;9.30;94.60
27368;DHT22;14839;48.106;11.618;2023-11-21T09:09:05;9.40;94.60
27368;DHT22;14839;48.106;11.618;2023-11-21T09:11:32;9.70;94.60
27368;DHT22;14839;48.106;11.618;2023-11-21T09:13:59;10.30;94.60
27368;DHT22;14839;48.106;11.618;2023-11-21T09:16:25;10.40;94.40
27368;DHT22;14839;48.106;11.618;2023-11-21T09:18:51;10.40;93.70
27368;DHT22;14839;48.106;11.618;2023-11-21T09:21:17;10.30;93.10
27368;DHT22;14839;48.106;11.618;2023-11-21T09:23:44;10.40;93.70
27368;DHT22;14839;48.106;11.618;2023-11-21T09:26:10;10.40;94.40
27368;DHT22;14839;48.106;11.618;2023-11-21T09:28:35;10.20;93.90
27368;DHT22;14839;48.106;11.618;2023-11-21T09:31:04;10.10;94.00
27368;DHT22;14839;48.106;11.618;2023-11-21T09:33:30;10.00;94.50
27368;DHT22;14839;48.106;11.618;2023-11-21T09:35:56;10.00;94.60
27368;DHT22;14839;48.106;11.618;2023-11-21T09:38:23;10.00;94.60
27368;DHT22;14839;48.106;11.618;2023-11-21T09:40:48;10.10;94.60
27368;DHT22;14839;48.106;11.618;2023-11-21T09:43:18;10.10;94.60
27368;DHT22;14839;48.106;11.618;2023-11-21T09:45:50;10.20;94.60
27368;DHT22;14839;48.106;11.618;2023-11-21T09:48:20;10.20;94.20
27368;DHT22;14839;48.106;11.618;2023-11-21T09:50:47;10.20;94.60
27368;DHT22;14839;48.106;11.618;2023-11-21T09:53:19;10.10;94.30
27368;DHT22;14839;48.106;11.618;2023-11-21T09:55:51;10.00;94.30
27368;DHT22;14839;48.106;11.618;2023-11-21T09:58:21;10.10;94.60
27368;DHT22;14839;48.106;11.618;2023-11-21T10:00:54;10.20;94.60
27368;DHT22;14839;48.106;11.618;2023-11-21T10:03:21;10.20;94.40
27368;DHT22;14839;48.106;11.618;2023-11-21T10:05:50;10.20;94.20
27368;DHT22;14839;48.106;11.618;2023-11-21T10:08:15;10.30;94.60
27368;DHT22;14839;48.106;11.618;2023-11-21T10:10:46;10.10;94.30
27368;DHT22;14839;48.106;11.618;2023-11-21T10:13:13;10.20;94.60
27368;DHT22;14839;48.106;11.618;2023-11-21T10:15:42;10.20;94.60
27368;DHT22;14839;48.106;11.618;2023-11-21T10:18:14;10.20;94.60
27368;DHT22;14839;48.106;11.618;2023-11-21T10:20:44;10.30;94.60
27368;DHT22;14839;48.106;11.618;2023-11-21T10:23:20;10.30;94.60
27368;DHT22;14839;48.106;11.618;2023-11-21T10:25:47;10.40;94.60
27368;DHT22;14839;48.106;11.618;2023-11-21T10:28:13;10.50;94.00
27368;DHT22;14839;48.106;11.618;2023-11-21T10:30:39;10.70;94.10
27368;DHT22;14839;48.106;11.618;2023-11-21T10:33:06;10.70;93.50
27368;DHT22;14839;48.106;11.618;2023-11-21T10:35:48;10.80;92.80
27368;DHT22;14839;48.106;11.618;2023-11-21T10:38:17;10.90;92.60
27368;DHT22;14839;48.106;11.618;2023-11-21T10:40:43;11.00;92.90
27368;DHT22;14839;48.106;11.618;2023-11-21T10:43:11;11.10;93.20
27368;DHT22;14839;48.106;11.618;2023-11-21T10:45:44;10.90;92.00
27368;DHT22;14839;48.106;11.618;2023-11-21T10:48:10;10.90;92.50
27368;DHT22;14839;48.106;11.618;2023-11-21T10:50:38;10.80;93.50
27368;DHT22;14839;48.106;11.618;2023-11-21T10:53:05;10.80;93.40
27368;DHT22;14839;48.106;11.618;2023-11-21T10:55:32;10.80;93.70
27368;DHT22;14839;48.106;11.618;2023-11-21T10:58:00;10.60;93.00
27368;DHT22;14839;48.106;11.618;2023-11-21T11:00:28;10.60;93.50
27368;DHT22;14839;48.106;11.618;2023-11-21T11:02:54;10.50;93.90
27368;DHT22;14839;48.106;11.618;2023-11-21T11:05:24;10.50;94.10
27368;DHT22;14839;48.106;11.618;2023-11-21T11:07:59;10.40;94.10
27368;DHT22;14839;48.106;11.618;2023-11-21T11:10:28;10.50;94.10
27368;DHT22;14839;48.106;11.618;2023-11-21T11:12:55;10.30;93.80
27368;DHT22;14839;48.106;11.618;2023-11-21T11:15:23;10.30;94.60
27368;DHT22;14839;48.106;11.618;2023-11-21T11:17:49;10.40;94.60
27368;DHT22;14839;48.106;11.618;2023-11-21T11:20:16;10.50;94.50
27368;DHT22;14839;48.106;11.618;2023-11-21T11:23:04;10.60;94.60
27368;DHT22;14839;48.106;11.618;2023-11-21T11:28:27;10.80;94.20
27368;DHT22;14839;48.106;11.618;2023-11-21T11:36:02;10.70;94.50
27368;DHT22;14839;48.106;11.618;2023-11-21T11:38:33;10.80;93.90
27368;DHT22;14839;48.106;11.618;2023-11-21T11:41:05;10.90;93.50
27368;DHT22;14839;48.106;11.618;2023-11-21T11:43:32;10.80;92.80
27368;DHT22;14839;48.106;11.618;2023-11-21T11:46:10;10.70;93.10
27368;DHT22;14839;48.106;11.618;2023-11-21T11:48:40;10.60;93.80
27368;DHT22;14839;48.106;11.618;2023-11-21T11:51:11;10.50;94.00
27368;DHT22;14839;48.106;11.618;2023-11-21T11:53:43;10.50;94.40
27368;DHT22;14839;48.106;11.618;2023-11-21T11:56:28;10.40;94.30
27368;DHT22;14839;48.106;11.618;2023-11-21T11:58:57;10.40;94.60
27368;DHT22;14839;48.106;11.618;2023-11-21T12:01:26;10.40;94.60
27368;DHT22;14839;48.106;11.618;2023-11-21T12:06:50;10.50;94.60
27368;DHT22;14839;48.106;11.618;2023-11-21T12:09:23;10.50;94.50
27368;DHT22;14839;48.106;11.618;2023-11-21T12:11:49;10.60;94.60
27368;DHT22;14839;48.106;11.618;2023-11-21T12:14:16;10.60;94.50
27368;DHT22;14839;48.106;11.618;2023-11-21T12:16:42;10.80;93.90
27368;DHT22;14839;48.106;11.618;2023-11-21T12:19:11;10.80;93.20
27368;DHT22;14839;48.106;11.618;2023-11-21T12:21:38;10.80;93.20
27368;DHT22;14839;48.106;11.618;2023-11-21T12:24:06;10.60;92.90
27368;DHT22;14839;48.106;11.618;2023-11-21T12:26:34;10.60;92.90
27368;DHT22;14839;48.106;11.618;2023-11-21T12:29:01;10.50;92.50
27368;DHT22;14839;48.106;11.618;2023-11-21T12:31:30;10.40;93.30
27368;DHT22;14839;48.106;11.618;2023-11-21T12:33:55;10.30;93.90
27368;DHT22;14839;48.106;11.618;2023-11-21T12:36:22;10.30;94.00
27368;DHT22;14839;48.106;11.618;2023-11-21T12:38:47;10.40;94.60
27368;DHT22;14839;48.106;11.618;2023-11-21T12:41:13;10.50;94.40
27368;DHT22;14839;48.106;11.618;2023-11-21T12:43:41;10.40;93.30
27368;DHT22;14839;48.106;11.618;2023-11-21T12:46:10;10.20;93.60
27368;DHT22;14839;48.106;11.618;2023-11-21T12:48:41;10.20;94.10
27368;DHT22;14839;48.106;11.618;2023-11-21T12:51:10;10.40;94.20
27368;DHT22;14839;48.106;11.618;2023-11-21T12:53:37;10.50;94.60
27368;DHT22;14839;48.106;11.618;2023-11-21T12:56:13;10.60;93.80
27368;DHT22;14839;48.106;11.618;2023-11-21T12:58:40;10.70;93.10
27368;DHT22;14839;48.106;11.618;2023-11-21T13:01:10;10.80;92.90
27368;DHT22;14839;48.106;11.618;2023-11-21T13:03:38;10.80;92.40
27368;DHT22;14839;48.106;11.618;2023-11-21T13:06:06;10.80;93.10
27368;DHT22;14839;48.106;11.618;2023-11-21T13:08:33;10.80;93.00
27368;DHT22;14839;48.106;11.618;2023-11-21T13:11:01;10.80;93.00
27368;DHT22;14839;48.106;11.618;2023-11-21T13:13:29;10.50;93.50
27368;DHT22;14839;48.106;11.618;2023-11-21T13:15:56;9.70;94.60
27368;DHT22;14839;48.106;11.618;2023-11-21T13:18:26;9.00;94.60
27368;DHT22;14839;48.106;11.618;2023-11-21T13:20:56;8.70;94.60
27368;DHT22;14839;48.106;11.618;2023-11-21T13:23:22;8.50;94.60
27368;DHT22;14839;48.106;11.618;2023-11-21T13:25:48;8.40;94.60
27368;DHT22;14839;48.106;11.618;2023-11-21T13:28:15;8.40;94.60
27368;DHT22;14839;48.106;11.618;2023-11-21T13:30:41;8.30;94.60
27368;DHT22;14839;48.106;11.618;2023-11-21T13:33:08;8.30;94.60
27368;DHT22;14839;48.106;11.618;2023-11-21T13:35:37;8.30;94.60
27368;DHT22;14839;48.106;11.618;2023-11-21T13:38:16;8.40;94.60
27368;DHT22;14839;48.106;11.618;2023-11-21T13:40:47;8.30;94.60
27368;DHT22;14839;48.106;11.618;2023-11-21T13:43:16;8.40;94.60
27368;DHT22;14839;48.106;11.618;2023-11-21T13:45:42;8.40;94.60
27368;DHT22;14839;48.106;11.618;2023-11-21T13:48:10;8.50;94.60
27368;DHT22;14839;48.106;11.618;2023-11-21T13:50:42;8.60;94.60
27368;DHT22;14839;48.106;11.618;2023-11-21T13:53:23;8.60;94.60
27368;DHT22;14839;48.106;11.618;2023-11-21T13:55:52;8.70;94.60
27368;DHT22;14839;48.106;11.618;2023-11-21T13:58:23;8.70;94.60
27368;DHT22;14839;48.106;11.618;2023-11-21T14:01:08;8.80;94.60
27368;DHT22;14839;48.106;11.618;2023-11-21T14:03:50;8.90;94.60
27368;DHT22;14839;48.106;11.618;2023-11-21T14:06:22;9.00;94.60
27368;DHT22;14839;48.106;11.618;2023-11-21T14:08:53;9.00;94.60
27368;DHT22;14839;48.106;11.618;2023-11-21T14:11:22;9.00;94.60
27368;DHT22;14839;48.106;11.618;2023-11-21T14:13:48;9.00;94.60
27368;DHT22;14839;48.106;11.618;2023-11-21T14:16:14;9.00;94.60
27368;DHT22;14839;48.106;11.618;2023-11-21T14:18:40;8.90;94.60
27368;DHT22;14839;48.106;11.618;2023-11-21T14:21:20;8.80;94.60
27368;DHT22;14839;48.106;11.618;2023-11-21T14:23:47;8.80;94.60
27368;DHT22;14839;48.106;11.618;2023-11-21T14:26:13;8.60;94.60
27368;DHT22;14839;48.106;11.618;2023-11-21T14:28:41;8.50;94.60
27368;DHT22;14839;48.106;11.618;2023-11-21T14:31:07;8.40;94.60
27368;DHT22;14839;48.106;11.618;2023-11-21T14:33:33;8.40;94.60
27368;DHT22;14839;48.106;11.618;2023-11-21T14:35:59;8.40;94.60
27368;DHT22;14839;48.106;11.618;2023-11-21T14:38:24;8.40;94.60
27368;DHT22;14839;48.106;11.618;2023-11-21T14:40:50;8.40;94.60
27368;DHT22;14839;48.106;11.618;2023-11-21T14:43:15;8.40;94.60
27368;DHT22;14839;48.106;11.618;2023-11-21T14:45:42;8.40;94.60
27368;DHT22;14839;48.106;11.618;2023-11-21T14:48:07;8.30;94.60
27368;DHT22;14839;48.106;11.618;2023-11-21T14:50:41;8.30;94.60
27368;DHT22;14839;48.106;11.618;2023-11-21T14:53:11;8.30;94.60
27368;DHT22;14839;48.106;11.618;2023-11-21T14:55:39;8.30;94.60
27368;DHT22;14839;48.106;11.618;2023-11-21T14:58:19;8.20;94.60
27368;DHT22;14839;48.106;11.618;2023-11-21T15:01:00;8.20;94.60
27368;DHT22;14839;48.106;11.618;2023-11-21T15:03:27;8.20;94.60
27368;DHT22;14839;48.106;11.618;2023-11-21T15:05:56;8.10;94.60
27368;DHT22;14839;48.106;11.618;2023-11-21T15:08:22;8.10;94.60
27368;DHT22;14839;48.106;11.618;2023-11-21T15:10:55;8.10;94.60
27368;DHT22;14839;48.106;11.618;2023-11-21T15:13:21;8.00;94.60
27368;DHT22;14839;48.106;11.618;2023-11-21T15:15:48;8.00;94.60
27368;DHT22;14839;48.106;11.618;2023-11-21T15:18:14;8.00;94.60
27368;DHT22;14839;48.106;11.618;2023-11-21T15:20:40;7.90;94.60
27368;DHT22;14839;48.106;11.618;2023-11-21T15:23:09;8.00;94.60
27368;DHT22;14839;48.106;11.618;2023-11-21T15:25:35;7.90;94.60
27368;DHT22;14839;48.106;11.618;2023-11-21T15:28:01;7.90;94.60
27368;DHT22;14839;48.106;11.618;2023-11-21T15:30:28;7.90;94.60
27368;DHT22;14839;48.106;11.618;2023-11-21T15:32:57;7.90;94.60
27368;DHT22;14839;48.106;11.618;2023-11-21T15:35:23;7.90;94.60
27368;DHT22;14839;48.106;11.618;2023-11-21T15:37:49;7.80;94.60
27368;DHT22;14839;48.106;11.618;2023-11-21T15:40:14;7.80;94.60
27368;DHT22;14839;48.106;11.618;2023-11-21T15:42:42;7.70;94.60
27368;DHT22;14839;48.106;11.618;2023-11-21T15:45:08;7.70;94.60
27368;DHT22;14839;48.106;11.618;2023-11-21T15:47:34;7.70;94.60
27368;DHT22;14839;48.106;11.618;2023-11-21T15:50:00;7.70;94.60
27368;DHT22;14839;48.106;11.618;2023-11-21T15:52:26;7.70;94.60
27368;DHT22;14839;48.106;11.618;2023-11-21T15:54:54;7.70;94.60
27368;DHT22;14839;48.106;11.618;2023-11-21T15:57:19;7.70;94.60
27368;DHT22;14839;48.106;11.618;2023-11-21T15:59:47;7.70;94.60
27368;DHT22;14839;48.106;11.618;2023-11-21T16:02:13;7.70;94.60
27368;DHT22;14839;48.106;11.618;2023-11-21T16:04:41;7.70;94.60
27368;DHT22;14839;48.106;11.618;2023-11-21T16:07:08;7.70;94.60
27368;DHT22;14839;48.106;11.618;2023-11-21T16:09:33;7.70;94.60
27368;DHT22;14839;48.106;11.618;2023-11-21T16:12:01;7.60;94.60
27368;DHT22;14839;48.106;11.618;2023-11-21T16:14:29;7.60;94.60
27368;DHT22;14839;48.106;11.618;2023-11-21T16:17:01;7.70;94.60
27368;DHT22;14839;48.106;11.618;2023-11-21T16:19:28;7.70;94.60
27368;DHT22;14839;48.106;11.618;2023-11-21T16:21:54;7.70;94.60
27368;DHT22;14839;48.106;11.618;2023-11-21T16:24:20;7.70;94.60
27368;DHT22;14839;48.106;11.618;2023-11-21T16:26:46;7.70;94.60
27368;DHT22;14839;48.106;11.618;2023-11-21T16:29:13;7.70;94.60
27368;DHT22;14839;48.106;11.618;2023-11-21T16:31:41;7.80;94.60
27368;DHT22;14839;48.106;11.618;2023-11-21T16:34:15;7.70;94.60
27368;DHT22;14839;48.106;11.618;2023-11-21T16:36:42;7.70;94.60
27368;DHT22;14839;48.106;11.618;2023-11-21T16:39:11;7.60;94.60
27368;DHT22;14839;48.106;11.618;2023-11-21T16:41:41;7.60;94.60
27368;DHT22;14839;48.106;11.618;2023-11-21T16:44:14;7.60;94.60
27368;DHT22;14839;48.106;11.618;2023-11-21T16:46:42;7.50;94.60
27368;DHT22;14839;48.106;11.618;2023-11-21T16:49:11;7.50;94.60
27368;DHT22;14839;48.106;11.618;2023-11-21T16:51:36;7.50;94.60
27368;DHT22;14839;48.106;11.618;2023-11-21T16:54:02;7.50;94.60
27368;DHT22;14839;48.106;11.618;2023-11-21T16:56:27;7.50;94.60
27368;DHT22;14839;48.106;11.618;2023-11-21T16:58:53;7.50;94.60
27368;DHT22;14839;48.106;11.618;2023-11-21T17:01:19;7.50;94.60
27368;DHT22;14839;48.106;11.618;2023-11-21T17:03:45;7.50;94.60
27368;DHT22;14839;48.106;11.618;2023-11-21T17:06:11;7.50;94.60
27368;DHT22;14839;48.106;11.618;2023-11-21T17:08:37;7.50;94.60
27368;DHT22;14839;48.106;11.618;2023-11-21T17:11:02;7.60;94.60
27368;DHT22;14839;48.106;11.618;2023-11-21T17:13:29;7.60;94.60
27368;DHT22;14839;48.106;11.618;2023-11-21T17:15:55;7.60;94.60
27368;DHT22;14839;48.106;11.618;2023-11-21T17:18:20;7.60;94.60
27368;DHT22;14839;48.106;11.618;2023-11-21T17:20:47;7.60;94.60
27368;DHT22;14839;48.106;11.618;2023-11-21T17:23:14;7.60;94.60
27368;DHT22;14839;48.106;11.618;2023-11-21T17:25:39;7.60;94.60
27368;DHT22;14839;48.106;11.618;2023-11-21T17:28:05;7.60;94.60
27368;DHT22;14839;48.106;11.618;2023-11-21T17:30:30;7.60;94.60
27368;DHT22;14839;48.106;11.618;2023-11-21T17:32:57;7.60;94.60
27368;DHT22;14839;48.106;11.618;2023-11-21T17:35:22;7.60;94.60
27368;DHT22;14839;48.106;11.618;2023-11-21T17:37:48;7.60;94.60
27368;DHT22;14839;48.106;11.618;2023-11-21T17:40:13;7.60;94.60
27368;DHT22;14839;48.106;11.618;2023-11-21T17:42:40;7.70;94.60
27368;DHT22;14839;48.106;11.618;2023-11-21T17:45:07;7.60;94.60
27368;DHT22;14839;48.106;11.618;2023-11-21T17:47:33;7.70;94.60
27368;DHT22;14839;48.106;11.618;2023-11-21T17:49:59;7.70;94.60
27368;DHT22;14839;48.106;11.618;2023-11-21T17:52:24;7.80;94.60
27368;DHT22;14839;48.106;11.618;2023-11-21T17:54:50;7.80;94.60
27368;DHT22;14839;48.106;11.618;2023-11-21T17:57:16;7.80;94.60
27368;DHT22;14839;48.106;11.618;2023-11-21T17:59:42;7.70;94.60
27368;DHT22;14839;48.106;11.618;2023-11-21T18:02:08;7.70;94.60
27368;DHT22;14839;48.106;11.618;2023-11-21T18:04:38;7.70;94.60
27368;DHT22;14839;48.106;11.618;2023-11-21T18:07:04;7.80;94.60
27368;DHT22;14839;48.106;11.618;2023-11-21T18:09:30;7.70;94.60
27368;DHT22;14839;48.106;11.618;2023-11-21T18:11:56;7.70;94.60
27368;DHT22;14839;48.106;11.618;2023-11-21T18:14:22;7.80;94.60
27368;DHT22;14839;48.106;11.618;2023-11-21T18:16:47;7.70;94.60
27368;DHT22;14839;48.106;11.618;2023-11-21T18:19:13;7.70;94.60
27368;DHT22;14839;48.106;11.618;2023-11-21T18:21:39;7.70;94.60
27368;DHT22;14839;48.106;11.618;2023-11-21T18:24:08;7.70;94.60
27368;DHT22;14839;48.106;11.618;2023-11-21T18:26:34;7.70;94.60
27368;DHT22;14839;48.106;11.618;2023-11-21T18:29:00;7.70;94.60
27368;DHT22;14839;48.106;11.618;2023-11-21T18:31:25;7.70;94.60
27368;DHT22;14839;48.106;11.618;2023-11-21T18:33:51;7.70;94.60
27368;DHT22;14839;48.106;11.618;2023-11-21T18:36:18;7.70;94.60
27368;DHT22;14839;48.106;11.618;2023-11-21T18:38:44;7.70;94.60
27368;DHT22;14839;48.106;11.618;2023-11-21T18:41:09;7.70;94.60
27368;DHT22;14839;48.106;11.618;2023-11-21T18:43:35;7.80;94.60
27368;DHT22;14839;48.106;11.618;2023-11-21T18:46:01;7.70;94.60
27368;DHT22;14839;48.106;11.618;2023-11-21T18:48:31;7.80;94.60
27368;DHT22;14839;48.106;11.618;2023-11-21T18:50:57;7.80;94.60
27368;DHT22;14839;48.106;11.618;2023-11-21T18:53:23;7.80;94.60
27368;DHT22;14839;48.106;11.618;2023-11-21T18:55:49;7.80;94.60
27368;DHT22;14839;48.106;11.618;2023-11-21T18:58:14;7.80;94.60
27368;DHT22;14839;48.106;11.618;2023-11-21T19:00:41;7.80;94.60
27368;DHT22;14839;48.106;11.618;2023-11-21T19:03:07;7.80;94.60
27368;DHT22;14839;48.106;11.618;2023-11-21T19:05:34;7.70;94.60
27368;DHT22;14839;48.106;11.618;2023-11-21T19:08:00;7.70;94.60
27368;DHT22;14839;48.106;11.618;2023-11-21T19:10:25;7.60;94.60
27368;DHT22;14839;48.106;11.618;2023-11-21T19:12:55;7.60;94.60
27368;DHT22;14839;48.106;11.618;2023-11-21T19:15:21;7.60;94.60
27368;DHT22;14839;48.106;11.618;2023-11-21T19:17:47;7.60;94.60
27368;DHT22;14839;48.106;11.618;2023-11-21T19:20:13;7.60;94.60
27368;DHT22;14839;48.106;11.618;2023-11-21T19:22:38;7.60;94.60
27368;DHT22;14839;48.106;11.618;2023-11-21T19:25:05;7.60;94.60
27368;DHT22;14839;48.106;11.618;2023-11-21T19:27:32;7.60;94.60
27368;DHT22;14839;48.106;11.618;2023-11-21T19:29:58;7.70;94.60
27368;DHT22;14839;48.106;11.618;2023-11-21T19:32:23;7.70;94.60
27368;DHT22;14839;48.106;11.618;2023-11-21T19:34:49;7.80;94.60
27368;DHT22;14839;48.106;11.618;2023-11-21T19:37:15;7.80;94.60
27368;DHT22;14839;48.106;11.618;2023-11-21T19:39:41;7.80;94.60
27368;DHT22;14839;48.106;11.618;2023-11-21T19:42:06;7.80;94.60
27368;DHT22;14839;48.106;11.618;2023-11-21T19:44:32;7.80;94.60
27368;DHT22;14839;48.106;11.618;2023-11-21T19:47:02;7.80;94.60
27368;DHT22;14839;48.106;11.618;2023-11-21T19:49:27;7.80;94.60
27368;DHT22;14839;48.106;11.618;2023-11-21T19:51:53;7.80;94.60
27368;DHT22;14839;48.106;11.618;2023-11-21T19:54:18;7.80;94.60
27368;DHT22;14839;48.106;11.618;2023-11-21T19:56:44;7.70;94.60
27368;DHT22;14839;48.106;11.618;2023-11-21T19:59:10;7.70;94.60
27368;DHT22;14839;48.106;11.618;2023-11-21T20:01:36;7.70;94.60
27368;DHT22;14839;48.106;11.618;2023-11-21T20:04:02;7.70;94.60
27368;DHT22;14839;48.106;11.618;2023-11-21T20:06:27;7.70;94.60
27368;DHT22;14839;48.106;11.618;2023-11-21T20:08:53;7.60;94.60
27368;DHT22;14839;48.106;11.618;2023-11-21T20:11:22;7.60;94.60
27368;DHT22;14839;48.106;11.618;2023-11-21T20:13:49;7.60;94.60
27368;DHT22;14839;48.106;11.618;2023-11-21T20:16:14;7.60;94.60
27368;DHT22;14839;48.106;11.618;2023-11-21T20:18:41;7.50;94.60
27368;DHT22;14839;48.106;11.618;2023-11-21T20:21:07;7.50;94.60
27368;DHT22;14839;48.106;11.618;2023-11-21T20:23:34;7.50;94.60
27368;DHT22;14839;48.106;11.618;2023-11-21T20:25:59;7.50;94.60
27368;DHT22;14839;48.106;11.618;2023-11-21T20:28:27;7.50;94.60
27368;DHT22;14839;48.106;11.618;2023-11-21T20:30:52;7.50;94.60
27368;DHT22;14839;48.106;11.618;2023-11-21T20:33:18;7.50;94.60
27368;DHT22;14839;48.106;11.618;2023-11-21T20:35:44;7.50;94.60
27368;DHT22;14839;48.106;11.618;2023-11-21T20:38:12;7.50;94.60
27368;DHT22;14839;48.106;11.618;2023-11-21T20:40:39;7.50;94.60